createdAt,value
2023-03-12T00:00:09.415Z,94606.00
2023-03-12T00:04:09.489Z,94616.00
2023-03-12T00:08:09.376Z,94614.00
2023-03-12T00:12:09.315Z,94626.00
2023-03-12T00:16:09.318Z,94624.00
2023-03-12T00:20:09.231Z,94634.00
2023-03-12T00:24:09.195Z,94638.00
2023-03-12T00:28:09.154Z,94640.00
2023-03-12T00:32:09.305Z,94640.00
2023-03-12T00:36:09.272Z,94644.00
2023-03-12T00:40:09.271Z,94646.00
2023-03-12T00:44:09.226Z,94648.00
2023-03-12T00:48:09.180Z,94653.00
2023-03-12T00:52:09.115Z,94653.00
2023-03-12T00:56:09.104Z,94655.00
2023-03-12T01:00:09.073Z,94651.00
2023-03-12T01:04:09.079Z,94651.00
2023-03-12T01:08:09.007Z,94649.00
2023-03-12T01:12:09.204Z,94648.00
2023-03-12T01:16:09.207Z,94648.00
2023-03-12T01:20:09.096Z,94648.00
2023-03-12T01:24:09.106Z,94648.00
2023-03-12T01:28:09.048Z,94646.00
2023-03-12T01:32:08.997Z,94644.00
2023-03-12T01:36:09.062Z,94644.00
2023-03-12T01:40:08.928Z,94644.00
2023-03-12T01:44:08.919Z,94640.00
2023-03-12T01:48:08.847Z,94644.00
2023-03-12T01:52:09.021Z,94646.00
2023-03-12T01:56:09.001Z,94649.00
2023-03-12T02:00:08.969Z,94646.00
2023-03-12T02:04:08.958Z,94646.00
2023-03-12T02:08:08.896Z,94649.00
2023-03-12T02:12:08.863Z,94651.00
2023-03-12T02:16:08.833Z,94657.00
2023-03-12T02:20:08.780Z,94665.00
2023-03-12T02:24:08.748Z,94667.00
2023-03-12T02:28:08.727Z,94669.00
2023-03-12T02:32:08.855Z,94669.00
2023-03-12T02:36:08.838Z,94675.00
2023-03-12T02:40:08.741Z,94681.00
2023-03-12T02:44:08.732Z,94687.00
2023-03-12T02:48:08.694Z,94687.00
2023-03-12T02:52:08.640Z,94693.00
2023-03-12T02:56:08.617Z,94698.00
2023-03-12T03:00:08.577Z,94706.00
2023-03-12T03:04:08.590Z,94706.00
2023-03-12T03:08:08.475Z,94710.00
2023-03-12T03:12:08.668Z,94712.00
2023-03-12T03:16:08.675Z,94716.00
2023-03-12T03:20:08.620Z,94716.00
2023-03-12T03:24:08.574Z,94716.00
2023-03-12T03:28:08.544Z,94718.00
2023-03-12T03:32:08.495Z,94722.00
2023-03-12T03:36:08.450Z,94724.00
2023-03-12T03:40:08.428Z,94722.00
2023-03-12T03:44:08.394Z,94728.00
2023-03-12T03:48:08.376Z,94730.00
2023-03-12T03:52:08.339Z,94736.00
2023-03-12T03:56:08.277Z,94732.00
2023-03-12T04:00:08.272Z,94732.00
2023-03-12T04:04:08.232Z,94736.00
2023-03-12T04:08:08.207Z,94740.00
2023-03-12T04:12:08.160Z,94740.00
2023-03-12T04:16:08.240Z,94743.00
2023-03-12T04:20:08.085Z,94747.00
2023-03-12T04:24:08.044Z,94749.00
2023-03-12T04:28:08.215Z,94753.00
2023-03-12T04:32:08.165Z,94753.00
2023-03-12T04:36:08.159Z,94761.00
2023-03-12T04:40:08.119Z,94755.00
2023-03-12T04:44:08.069Z,94761.00
2023-03-12T04:48:08.055Z,94759.00
2023-03-12T04:52:07.991Z,94761.00
2023-03-12T04:56:07.973Z,94765.00
2023-03-12T05:00:07.951Z,94757.00
2023-03-12T05:04:07.971Z,94759.00
2023-03-12T05:08:07.989Z,94761.00
2023-03-12T05:12:07.977Z,94769.00
2023-03-12T05:16:07.956Z,94775.00
2023-03-12T05:20:07.926Z,94775.00
2023-03-12T05:24:07.861Z,94779.00
2023-03-12T05:28:07.846Z,94783.00
2023-03-12T05:32:07.779Z,94783.00
2023-03-12T05:36:07.785Z,94789.00
2023-03-12T05:40:07.728Z,94790.00
2023-03-12T05:44:07.672Z,94792.00
2023-03-12T05:48:07.761Z,94785.00
2023-03-12T05:52:07.978Z,94792.00
2023-03-12T05:56:07.928Z,94789.00
2023-03-12T06:00:07.922Z,94792.00
2023-03-12T06:04:07.947Z,94798.00
2023-03-12T06:08:07.853Z,94796.00
2023-03-12T06:12:07.798Z,94796.00
2023-03-12T06:16:07.761Z,94796.00
2023-03-12T06:20:07.729Z,94802.00
2023-03-12T06:24:07.691Z,94796.00
2023-03-12T06:28:07.649Z,94800.00
2023-03-12T06:32:07.637Z,94800.00
2023-03-12T06:36:07.566Z,94800.00
2023-03-12T06:40:07.723Z,94808.00
2023-03-12T06:44:07.938Z,94802.00
2023-03-12T06:48:08.203Z,94806.00
2023-03-12T06:52:08.409Z,94802.00
2023-03-12T06:56:08.594Z,94812.00
2023-03-12T07:00:08.767Z,94816.00
2023-03-12T07:04:08.976Z,94820.00
2023-03-12T07:08:09.105Z,94816.00
2023-03-12T07:12:09.347Z,94820.00
2023-03-12T07:16:09.571Z,94818.00
2023-03-12T07:20:09.636Z,94816.00
2023-03-12T07:24:09.781Z,94826.00
2023-03-12T07:28:09.914Z,94820.00
2023-03-12T07:32:10.009Z,94824.00
2023-03-12T07:36:10.305Z,94818.00
2023-03-12T07:40:10.364Z,94826.00
2023-03-12T07:44:10.615Z,94822.00
2023-03-12T07:48:10.763Z,94828.00
2023-03-12T07:52:10.888Z,94832.00
2023-03-12T07:56:11.153Z,94832.00
2023-03-12T08:00:11.284Z,94834.00
2023-03-12T08:04:11.448Z,94838.00
2023-03-12T08:08:11.593Z,94830.00
2023-03-12T08:12:11.771Z,94830.00
2023-03-12T08:16:11.892Z,94824.00
2023-03-12T08:20:12.032Z,94824.00
2023-03-12T08:24:12.166Z,94826.00
2023-03-12T08:28:12.385Z,94824.00
2023-03-12T08:32:12.675Z,94824.00
2023-03-12T08:36:12.734Z,94826.00
2023-03-12T08:40:12.940Z,94832.00
2023-03-12T08:44:13.116Z,94826.00
2023-03-12T08:48:13.349Z,94832.00
2023-03-12T08:52:13.304Z,94826.00
2023-03-12T08:56:13.254Z,94832.00
2023-03-12T09:00:13.223Z,94838.00
2023-03-12T09:04:13.238Z,94838.00
2023-03-12T09:08:13.178Z,94853.00
2023-03-12T09:12:13.128Z,94863.00
2023-03-12T09:16:13.262Z,94851.00
2023-03-12T09:20:13.068Z,94851.00
2023-03-12T09:24:13.059Z,94861.00
2023-03-12T09:28:15.432Z,94851.00
2023-03-12T09:32:12.998Z,94855.00
2023-03-12T09:36:13.017Z,94857.00
2023-03-12T09:40:12.884Z,94861.00
2023-03-12T09:44:12.892Z,94861.00
2023-03-12T09:48:12.872Z,94863.00
2023-03-12T09:52:12.811Z,94873.00
2023-03-12T09:56:12.856Z,94865.00
2023-03-12T10:00:12.823Z,94871.00
2023-03-12T10:04:12.916Z,94869.00
2023-03-12T10:08:25.476Z,94863.00
2023-03-12T10:12:13.706Z,94873.00
2023-03-12T10:16:12.799Z,94892.00
2023-03-12T10:20:12.649Z,94894.00
2023-03-12T10:24:12.631Z,94898.00
2023-03-12T10:28:12.583Z,94914.00
2023-03-12T10:32:12.554Z,94912.00
2023-03-12T10:36:12.541Z,94920.00
2023-03-12T10:40:12.488Z,94916.00
2023-03-12T10:44:12.462Z,94918.00
2023-03-12T10:48:12.401Z,94900.00
2023-03-12T10:52:12.399Z,94902.00
2023-03-12T10:56:12.371Z,94906.00
2023-03-12T11:00:12.367Z,94904.00
2023-03-12T11:04:12.328Z,94896.00
2023-03-12T11:08:12.290Z,94902.00
2023-03-12T11:12:12.257Z,94902.00
2023-03-12T11:16:12.194Z,94892.00
2023-03-12T11:20:12.180Z,94910.00
2023-03-12T11:24:12.121Z,94902.00
2023-03-12T11:28:12.125Z,94908.00
2023-03-12T11:32:12.070Z,94904.00
2023-03-12T11:36:12.149Z,94906.00
2023-03-12T11:40:12.136Z,94900.00
2023-03-12T11:44:12.081Z,94898.00
2023-03-12T11:48:12.070Z,94904.00
2023-03-12T11:52:12.005Z,94879.00
2023-03-12T11:56:11.967Z,94894.00
2023-03-12T12:00:11.942Z,94883.00
2023-03-12T12:04:11.889Z,94873.00
2023-03-12T12:08:11.905Z,94881.00
2023-03-12T12:12:11.851Z,94883.00
2023-03-12T12:16:12.018Z,94881.00
2023-03-12T12:20:12.027Z,94873.00
2023-03-12T12:24:11.971Z,94879.00
2023-03-12T12:28:12.012Z,94879.00
2023-03-12T12:32:11.944Z,94875.00
2023-03-12T12:36:11.919Z,94881.00
2023-03-12T12:40:11.811Z,94873.00
2023-03-12T12:44:11.795Z,94871.00
2023-03-12T12:48:11.769Z,94879.00
2023-03-12T12:52:11.726Z,94873.00
2023-03-12T12:56:14.169Z,94881.00
2023-03-12T13:00:11.905Z,94871.00
2023-03-12T13:04:11.950Z,94869.00
2023-03-12T13:08:11.836Z,94865.00
2023-03-12T13:12:11.840Z,94877.00
2023-03-12T13:16:11.801Z,94879.00
2023-03-12T13:20:11.752Z,94881.00
2023-03-12T13:24:11.686Z,94877.00
2023-03-12T13:28:11.651Z,94879.00
2023-03-12T13:32:11.620Z,94879.00
2023-03-12T13:36:11.658Z,94894.00
2023-03-12T13:40:11.557Z,94904.00
2023-03-12T13:44:11.527Z,94908.00
2023-03-12T13:48:11.500Z,94896.00
2023-03-12T13:52:11.425Z,94910.00
2023-03-12T13:56:11.439Z,94904.00
2023-03-12T14:00:11.406Z,94910.00
2023-03-12T14:04:11.532Z,94906.00
2023-03-12T14:08:11.504Z,94910.00
2023-03-12T14:12:11.445Z,94922.00
2023-03-12T14:16:11.509Z,94918.00
2023-03-12T14:20:11.355Z,94918.00
2023-03-12T14:24:11.361Z,94920.00
2023-03-12T14:28:11.341Z,94926.00
2023-03-12T14:32:11.263Z,94916.00
2023-03-12T14:36:11.228Z,94908.00
2023-03-12T14:40:11.206Z,94906.00
2023-03-12T14:44:11.397Z,94916.00
2023-03-12T14:48:11.341Z,94910.00
2023-03-12T14:52:11.310Z,94904.00
2023-03-12T14:56:11.261Z,94900.00
2023-03-12T15:00:11.300Z,94890.00
2023-03-12T15:04:11.216Z,94890.00
2023-03-12T15:08:11.182Z,94894.00
2023-03-12T15:12:11.125Z,94881.00
2023-03-12T15:16:11.133Z,94875.00
2023-03-12T15:20:11.146Z,94877.00
2023-03-12T15:24:11.030Z,94881.00
2023-03-12T15:28:10.978Z,94875.00
2023-03-12T15:32:11.038Z,94875.00
2023-03-12T15:36:11.020Z,94869.00
2023-03-12T15:40:11.067Z,94869.00
2023-03-12T15:44:11.122Z,94861.00
2023-03-12T15:48:11.229Z,94869.00
2023-03-12T15:52:11.367Z,94873.00
2023-03-12T15:56:11.430Z,94873.00
2023-03-12T16:00:11.564Z,94871.00
2023-03-12T16:04:11.675Z,94873.00
2023-03-12T16:08:11.827Z,94877.00
2023-03-12T16:12:11.962Z,94873.00
2023-03-12T16:16:12.176Z,94871.00
2023-03-12T16:20:12.393Z,94875.00
2023-03-12T16:24:12.587Z,94873.00
2023-03-12T16:28:12.783Z,94879.00
2023-03-12T16:32:13.012Z,94867.00
2023-03-12T16:36:13.020Z,94871.00
2023-03-12T16:40:16.175Z,94879.00
2023-03-12T16:44:12.892Z,94890.00
2023-03-12T16:48:12.874Z,94892.00
2023-03-12T16:52:12.841Z,94898.00
2023-03-12T16:56:12.795Z,94904.00
2023-03-12T17:00:12.776Z,94906.00
2023-03-12T17:04:12.816Z,94906.00
2023-03-12T17:08:12.688Z,94918.00
2023-03-12T17:12:12.905Z,94930.00
2023-03-12T17:16:12.933Z,94947.00
2023-03-12T17:20:12.843Z,94947.00
2023-03-12T17:24:12.821Z,94955.00
2023-03-12T17:28:12.771Z,94951.00
2023-03-12T17:32:12.720Z,94963.00
2023-03-12T17:36:12.709Z,94973.00
2023-03-12T17:40:12.669Z,94983.00
2023-03-12T17:44:12.640Z,94987.00
2023-03-12T17:48:12.650Z,94996.00
2023-03-12T17:52:12.822Z,95008.00
2023-03-12T17:56:12.868Z,95012.00
2023-03-12T18:00:13.030Z,95020.00
2023-03-12T18:04:12.700Z,95020.00
2023-03-12T18:08:12.677Z,95018.00
2023-03-12T18:12:12.628Z,95020.00
2023-03-12T18:16:12.625Z,95018.00
2023-03-12T18:20:12.583Z,95018.00
2023-03-12T18:24:14.401Z,95024.00
2023-03-12T18:28:12.516Z,95020.00
2023-03-12T18:32:12.491Z,95024.00
2023-03-12T18:36:12.410Z,95028.00
2023-03-12T18:40:12.434Z,95028.00
2023-03-12T18:44:12.380Z,95032.00
2023-03-12T18:48:12.354Z,95032.00
2023-03-12T18:52:12.320Z,95041.00
2023-03-12T18:56:12.286Z,95047.00
2023-03-12T19:00:12.233Z,95049.00
2023-03-12T19:04:12.220Z,95061.00
2023-03-12T19:08:12.186Z,95061.00
2023-03-12T19:12:12.138Z,95065.00
2023-03-12T19:16:12.156Z,95065.00
2023-03-12T19:20:12.067Z,95065.00
2023-03-12T19:24:12.078Z,95067.00
2023-03-12T19:28:11.998Z,95067.00
2023-03-12T19:32:11.970Z,95069.00
2023-03-12T19:36:11.906Z,95067.00
2023-03-12T19:40:11.926Z,95063.00
2023-03-12T19:44:11.879Z,95065.00
2023-03-12T19:48:11.812Z,95067.00
2023-03-12T19:52:11.785Z,95065.00
2023-03-12T19:56:11.742Z,95065.00
2023-03-12T20:00:11.899Z,95067.00
2023-03-12T20:04:12.118Z,95067.00
2023-03-12T20:08:12.250Z,95071.00
2023-03-12T20:12:12.410Z,95071.00
2023-03-12T20:16:12.626Z,95067.00
2023-03-12T20:20:12.732Z,95073.00
2023-03-12T20:24:12.838Z,95073.00
2023-03-12T20:28:13.014Z,95075.00
2023-03-12T20:32:13.185Z,95073.00
2023-03-12T20:36:13.392Z,95075.00
2023-03-12T20:40:13.567Z,95081.00
2023-03-12T20:44:13.749Z,95086.00
2023-03-12T20:48:13.896Z,95083.00
2023-03-12T20:52:14.005Z,95085.00
2023-03-12T20:56:14.121Z,95090.00
2023-03-12T21:00:14.202Z,95085.00
2023-03-12T21:04:14.319Z,95086.00
2023-03-12T21:08:14.436Z,95088.00
2023-03-12T21:12:14.550Z,95094.00
2023-03-12T21:16:14.738Z,95092.00
2023-03-12T21:20:14.721Z,95100.00
2023-03-12T21:24:14.826Z,95102.00
2023-03-12T21:28:14.959Z,95100.00
2023-03-12T21:32:15.091Z,95100.00
2023-03-12T21:36:15.169Z,95104.00
2023-03-12T21:40:15.270Z,95102.00
2023-03-12T21:44:16.708Z,95100.00
2023-03-12T21:48:15.557Z,95098.00
2023-03-12T21:52:15.602Z,95100.00
2023-03-12T21:56:15.725Z,95098.00
2023-03-12T22:00:15.898Z,95102.00
2023-03-12T22:04:16.045Z,95106.00
2023-03-12T22:08:16.086Z,95106.00
2023-03-12T22:12:16.205Z,95110.00
2023-03-12T22:16:16.362Z,95118.00
2023-03-12T22:20:16.340Z,95118.00
2023-03-12T22:24:16.433Z,95124.00
2023-03-12T22:28:16.552Z,95118.00
2023-03-12T22:32:16.685Z,95118.00
2023-03-12T22:36:16.819Z,95114.00
2023-03-12T22:40:16.793Z,95116.00
2023-03-12T22:44:16.902Z,95116.00
2023-03-12T22:48:17.053Z,95108.00
2023-03-12T22:52:17.165Z,95116.00
2023-03-12T22:56:17.272Z,95112.00
2023-03-12T23:00:17.367Z,95118.00
2023-03-12T23:04:17.510Z,95118.00
2023-03-12T23:08:17.595Z,95114.00
2023-03-12T23:12:17.640Z,95110.00
2023-03-12T23:16:17.874Z,95106.00
2023-03-12T23:20:17.838Z,95112.00
2023-03-12T23:24:17.929Z,95114.00
2023-03-12T23:28:17.914Z,95116.00
2023-03-12T23:32:17.985Z,95114.00
2023-03-12T23:36:18.039Z,95112.00
2023-03-12T23:40:18.101Z,95110.00
2023-03-12T23:44:18.084Z,95108.00
2023-03-12T23:48:18.142Z,95110.00
2023-03-12T23:52:18.159Z,95110.00
2023-03-12T23:56:18.151Z,95110.00
